Latest Weather Observations for Amberley

IDQ60901

Issued at 8:41 pm EST Thursday 24 August 2017 (issued every 10 minutes, with the page automatically refreshed every 10 minutes)

About weather observations | Map of Brisbane area stations | Latest observations for Brisbane area | Other Formats
Station Details ID: 040004 Name: AMBERLEY AMO Lat: -27.63 Lon: 152.71 Height: 24.2 m
Data from the previous 72 hours. | See also: Recent months at Amberley
Date/Time
EST
Temp
°C
App
Temp
°C
Dew
Point
°C
Rel
Hum
%
Delta-T
°C
Wind Press
QNH
hPa
Press
MSL
hPa
Rain since
9am
mm
Dir  Spd
km/h
Gust
km/h
Spd
kts
Gust
kts
24/08:30pm 13.8 12.9 12.7 93 0.6 SW 9 11 5 6 1014.4 1014.4 2.0
24/08:00pm 14.0 13.7 12.7 92 0.7 SSW 6 11 3 6 1014.2 1014.2 2.0
24/07:30pm 14.6 14.3 13.2 91 0.8 SW 7 11 4 6 1014.0 1014.0 2.0
24/07:00pm 15.6 15.7 13.8 89 1.0 SE 6 9 3 5 1013.5 1013.5 2.0
24/06:30pm 16.2 15.6 13.5 84 1.5 ESE 9 13 5 7 1013.0 1013.0 2.0
24/06:00pm 18.3 17.6 13.2 72 2.9 N 9 9 5 5 1012.4 1012.4 2.0
24/05:30pm 19.7 19.4 13.2 66 3.7 NE 7 11 4 6 1012.1 1012.1 2.0
24/05:00pm 21.1 20.2 12.6 58 4.8 NNE 9 11 5 6 1011.7 1011.7 2.0
24/04:30pm 21.5 20.6 12.7 57 5.0 N 9 13 5 7 1011.5 1011.5 2.0
24/04:00pm 21.0 19.8 14.1 64 4.0 N 13 22 7 12 1011.4 1011.4 2.0
24/03:53pm 20.7 19.5 14.0 65 3.9 NNW 13 20 7 11 1011.6 1011.6 2.0
24/03:30pm 21.3 20.5 15.2 68 3.6 N 13 19 7 10 1011.1 1011.1 2.0
24/03:14pm 20.3 18.3 14.9 71 3.2 N 19 30 10 16 1011.2 1011.2 2.0
24/03:00pm 18.1 15.0 14.6 80 2.0 NNW 24 59 13 32 1011.9 1011.9 1.4
24/02:58pm 18.4 16.0 14.4 77 2.3 NNW 20 59 11 32 1012.1 1012.1 0.4
24/02:42pm 22.4 21.2 12.8 54 5.5 N 11 32 6 17 1011.1 1011.1 0.0
24/02:30pm 24.9 23.0 9.1 36 8.6 NNW 9 19 5 10 1011.2 1011.2 0.0
24/02:00pm 26.1 22.0 8.8 33 9.4 N 20 30 11 16 1011.7 1011.7 0.0
24/01:30pm 25.2 22.0 8.5 34 9.0 NNW 15 24 8 13 1012.4 1012.4 0.0
24/01:00pm 25.8 22.8 10.6 38 8.5 N 17 28 9 15 1013.1 1013.1 0.0
24/12:30pm 25.6 23.0 10.8 39 8.3 NNW 15 20 8 11 1013.7 1013.7 0.0
24/12:00pm 23.8 20.9 11.1 44 7.1 N 17 26 9 14 1014.5 1014.5 0.0
24/11:30am 23.7 20.5 11.2 45 7.0 NNW 19 28 10 15 1015.2 1015.2 0.0
24/11:00am 21.7 18.7 10.8 50 6.0 N 17 24 9 13 1015.7 1015.7 0.0
24/10:30am 21.4 18.2 11.1 52 5.7 NNW 19 24 10 13 1016.1 1016.1 0.0
24/10:00am 19.7 19.2 12.8 64 3.9 N 7 13 4 7 1016.4 1016.4 0.0
24/09:30am 17.5 18.8 14.2 81 1.9 CALM 0 7 0 4 1016.6 1016.6 0.0
24/09:00am 17.0 17.4 14.7 86 1.3 N 6 9 3 5 1016.7 1016.7 0.2
24/08:49am 17.1 18.2 14.5 85 1.5 NNW 2 9 1 5 1016.8 1016.8 0.0
24/08:30am 17.1 18.9 15.4 90 1.0 CALM 0 0 0 0 1016.8 1016.8 0.0
24/08:00am 15.6 17.3 15.1 97 0.3 CALM 0 0 0 0 1017.0 1017.0 0.0
24/07:30am 15.6 17.2 14.9 96 0.4 CALM 0 0 0 0 1016.9 1016.9 0.0
24/07:00am 15.1 16.3 13.9 92 0.7 CALM 0 0 0 0 1016.4 1016.4 0.0
24/06:30am 14.6 15.7 13.5 93 0.6 CALM 0 0 0 0 1016.4 1016.4 0.0
24/06:00am 14.5 15.6 13.4 93 0.6 CALM 0 0 0 0 1016.1 1016.1 0.0
24/05:30am 14.6 15.7 13.5 93 0.6 CALM 0 0 0 0 1015.8 1015.8 0.0
24/05:00am 14.5 15.6 13.6 94 0.5 CALM 0 0 0 0 1015.8 1015.8 0.0
24/04:30am 14.5 15.6 13.6 94 0.5 CALM 0 0 0 0 1015.6 1015.6 0.0
24/04:00am 14.8 16.0 13.9 94 0.5 CALM 0 0 0 0 1015.6 1015.6 0.0
24/03:30am 14.5 15.7 13.8 96 0.4 CALM 0 0 0 0 1015.5 1015.5 0.0
24/03:00am 14.3 15.4 13.4 94 0.5 CALM 0 0 0 0 1015.7 1015.7 0.0
24/02:44am 14.1 15.1 13.2 94 0.5 CALM 0 0 0 0 1015.7 1015.7 0.0
24/02:30am 13.9 14.5 13.0 94 0.5 S 2 6 1 3 1015.7 1015.7 0.0
24/02:16am 13.8 13.4 13.1 96 0.4 SSE 7 9 4 5 1015.8 1015.8 0.0
24/02:00am 13.7 13.8 12.8 94 0.5 S 4 7 2 4 1016.0 1016.0 0.0
24/01:30am 14.4 15.5 13.5 94 0.5 CALM 0 0 0 0 1016.1 1016.1 0.0
24/01:00am 14.3 15.4 13.4 94 0.5 CALM 0 0 0 0 1016.5 1016.5 0.0
24/12:46am 14.7 15.8 13.4 92 0.7 CALM 0 0 0 0 1016.6 1016.6 0.0
24/12:30am 14.9 16.0 13.6 92 0.7 CALM 0 0 0 0 1016.7 1016.7 0.0
24/12:00am 15.1 16.3 13.7 91 0.8 CALM 0 0 0 0 1017.0 1017.0 0.0
 
Date/Time
EST
Temp
°C
App
Temp
°C
Dew
Point
°C
Rel
Hum
%
Delta-T
°C
Wind Press
QNH
hPa
Press
MSL
hPa
Rain since
9am
mm
Dir  Spd
km/h
Gust
km/h
Spd
kts
Gust
kts
23/11:30pm 15.6 15.5 14.0 90 0.9 SW 7 11 4 6 1017.2 1017.2 0.0
23/11:00pm 16.8 16.2 14.5 86 1.3 SSW 11 15 6 8 1017.1 1017.1 0.0
23/10:30pm 17.8 16.7 15.2 85 1.5 SSW 15 19 8 10 1017.0 1017.0 0.0
23/10:00pm 17.7 17.2 15.8 89 1.1 SW 13 15 7 8 1016.8 1016.8 0.0
23/09:30pm 17.7 17.5 15.7 88 1.2 SSW 11 11 6 6 1016.6 1016.6 0.0
23/09:00pm 17.6 17.4 15.6 88 1.2 SSW 11 13 6 7 1016.7 1016.7 0.0
23/08:30pm 18.4 18.9 15.5 83 1.7 E 7 9 4 5 1016.6 1016.6 0.0
23/08:00pm 19.4 19.3 16.0 81 2.0 ENE 11 13 6 7 1016.5 1016.5 0.0
23/07:30pm 19.8 19.6 15.6 77 2.5 ENE 11 15 6 8 1016.4 1016.4 0.0
23/07:00pm 20.2 19.3 14.9 71 3.1 ENE 13 19 7 10 1016.3 1016.3 0.0
23/06:30pm 20.6 18.8 14.4 67 3.6 ENE 17 19 9 10 1016.1 1016.1 0.0
23/06:00pm 21.2 19.3 14.2 64 4.1 ENE 17 22 9 12 1015.9 1015.9 0.0
23/05:30pm 22.1 19.2 14.0 60 4.7 NE 22 30 12 16 1015.8 1015.8 0.0
23/05:00pm 23.7 21.5 13.4 52 6.0 NE 17 28 9 15 1015.6 1015.6 0.0
23/04:30pm 25.8 24.1 9.9 36 8.8 N 9 13 5 7 1015.3 1015.3 0.0
23/04:00pm 26.2 23.3 9.7 35 9.1 N 15 24 8 13 1015.2 1015.2 0.0
23/03:30pm 26.0 23.9 9.7 35 9.0 NNW 11 17 6 9 1015.4 1015.4 0.0
23/03:00pm 26.4 24.8 10.3 36 9.0 NNW 9 17 5 9 1015.7 1015.7 0.0
23/02:30pm 25.9 23.5 8.5 33 9.4 N 11 17 6 9 1016.1 1016.1 0.0
23/02:00pm 25.8 23.7 8.3 33 9.4 WNW 9 17 5 9 1016.5 1016.5 0.0
23/01:30pm 24.6 22.3 11.7 44 7.3 NW 15 20 8 11 1017.0 1017.0 0.0
23/01:00pm 24.5 23.0 11.8 45 7.2 N 11 19 6 10 1017.4 1017.4 0.0
23/12:30pm 23.4 21.7 12.3 49 6.3 NNW 13 19 7 10 1018.0 1018.0 0.0
23/12:00pm 22.9 20.8 12.3 51 6.0 NW 15 20 8 11 1018.7 1018.7 0.0
23/11:30am 21.5 20.2 12.5 56 5.1 NW 11 22 6 12 1019.2 1019.2 0.0
23/11:00am 21.5 19.7 12.0 54 5.3 WNW 13 20 7 11 1019.7 1019.7 0.0
23/10:30am 21.5 20.8 12.0 54 5.3 NNW 7 13 4 7 1020.1 1020.1 0.0
23/10:00am 20.5 20.4 12.1 58 4.7 WSW 4 11 2 6 1020.4 1020.4 0.0
23/09:30am 19.2 18.5 12.0 63 4.0 SW 7 13 4 7 1020.5 1020.5 0.0
23/09:00am 18.5 18.4 12.2 66 3.5 SW 4 9 2 5 1020.8 1020.8 -
23/08:30am 17.7 18.8 13.6 77 2.3 CALM 0 6 0 3 1020.8 1020.8 -
23/08:00am 15.1 16.2 13.5 90 0.9 CALM 0 0 0 0 1020.7 1020.7 -
23/07:39am 14.1 15.0 13.0 93 0.6 CALM 0 4 0 2 1020.6 1020.6 0.0
23/07:30am 13.7 14.6 12.8 94 0.5 CALM 0 0 0 0 1020.4 1020.4 -
23/07:00am 12.3 12.8 11.5 95 0.4 CALM 0 7 0 4 1020.1 1020.1 -
23/06:30am 11.5 10.6 10.7 95 0.4 NW 6 9 3 5 1019.9 1019.9 -
23/06:00am 11.0 10.8 10.6 97 0.2 NW 2 9 1 5 1019.6 1019.6 -
23/05:30am 11.9 10.9 11.1 95 0.4 NW 7 9 4 5 1019.4 1019.4 -
23/05:06am 11.6 10.6 11.0 96 0.3 NW 7 9 4 5 1019.1 1019.1 -
23/05:00am 11.2 9.7 10.6 96 0.3 NW 9 9 5 5 1019.1 1019.1 -
23/04:42am 10.8 9.3 10.4 97 0.2 NW 9 9 5 5 1018.9 1018.9 -
23/04:30am 11.5 10.1 10.9 96 0.3 NW 9 11 5 6 1018.9 1018.9 -
23/04:16am 11.6 10.5 10.8 95 0.4 NW 7 9 4 5 1018.7 1018.7 -
23/04:00am 11.0 9.8 10.4 96 0.3 NW 7 9 4 5 1018.5 1018.5 -
23/03:54am 10.8 10.2 10.4 97 0.2 NW 4 9 2 5 1018.6 1018.6 -
23/03:42am 11.8 12.1 11.0 95 0.4 CALM 0 0 0 0 1018.5 1018.5 -
23/03:30am 12.2 12.7 11.6 96 0.3 CALM 0 0 0 0 1018.5 1018.5 -
23/03:00am 13.1 13.9 12.4 95 0.4 CALM 0 0 0 0 1018.4 1018.4 0.0
23/02:30am 12.5 11.8 11.9 96 0.3 NW 7 9 4 5 1018.4 1018.4 -
23/02:28am 12.5 11.8 11.9 96 0.3 NW 7 9 4 5 1018.4 1018.4 -
23/02:24am 12.1 11.2 11.5 96 0.3 NW 7 11 4 6 1018.4 1018.4 -
23/02:04am 12.6 12.8 11.8 95 0.4 NNW 2 6 1 3 1018.5 1018.5 -
23/02:00am 13.1 13.8 12.2 94 0.5 CALM 0 0 0 0 1018.5 1018.5 -
23/01:45am 13.1 13.8 12.2 94 0.5 CALM 0 0 0 0 1018.6 1018.6 -
23/01:30am 12.9 13.5 12.0 94 0.5 CALM 0 6 0 3 1018.6 1018.6 -
23/01:00am 12.3 12.1 11.7 96 0.3 NW 4 9 2 5 1018.8 1018.8 -
23/12:56am 12.1 12.6 11.5 96 0.3 CALM 0 9 0 5 1018.7 1018.7 -
23/12:30am 12.2 12.7 11.6 96 0.3 CALM 0 0 0 0 1018.7 1018.7 -
23/12:00am 11.4 9.9 10.4 94 0.5 WNW 9 11 5 6 1018.8 1018.8 -
 
Date/Time
EST
Temp
°C
App
Temp
°C
Dew
Point
°C
Rel
Hum
%
Delta-T
°C
Wind Press
QNH
hPa
Press
MSL
hPa
Rain since
9am
mm
Dir  Spd
km/h
Gust
km/h
Spd
kts
Gust
kts
22/11:30pm 13.0 11.9 11.9 93 0.6 SSW 9 11 5 6 1018.9 1018.9 -
22/11:16pm 14.1 12.1 12.8 92 0.7 SSW 15 17 8 9 1018.9 1018.9 -
22/11:00pm 13.1 11.7 12.2 94 0.5 SSW 11 15 6 8 1018.8 1018.8 -
22/10:56pm 12.8 11.5 12.6 99 0.1 SSW 11 15 6 8 1018.8 1018.8 -
22/10:30pm 14.0 13.3 13.3 96 0.4 SSW 9 11 5 6 1018.4 1018.4 -
22/10:00pm 13.8 12.1 12.5 92 0.7 SSW 13 15 7 8 1018.5 1018.5 -
22/09:30pm 14.4 13.2 12.9 91 0.8 SSW 11 13 6 7 1018.3 1018.3 -
22/09:00pm 16.6 16.3 14.3 86 1.3 SSE 9 11 5 6 1018.1 1018.1 -
22/08:30pm 18.0 17.6 15.1 83 1.7 ESE 11 15 6 8 1017.8 1017.8 -
22/08:00pm 17.4 16.3 14.4 82 1.7 ESE 13 17 7 9 1017.5 1017.5 0.0
22/07:30pm 18.7 17.7 14.7 77 2.3 E 13 17 7 9 1017.1 1017.1 0.0
22/07:00pm 19.7 18.3 14.5 72 3.0 E 15 19 8 10 1016.8 1016.8 0.0
22/06:30pm 20.3 18.4 14.1 67 3.6 E 17 22 9 12 1016.5 1016.5 0.0
22/06:00pm 20.9 18.8 13.6 63 4.2 ENE 17 22 9 12 1016.1 1016.1 0.0
22/05:30pm 21.6 19.0 13.2 59 4.8 ENE 19 26 10 14 1015.8 1015.8 0.0
22/05:00pm 22.4 19.4 13.6 57 5.1 NE 22 28 12 15 1015.4 1015.4 0.0
22/04:30pm - - - - - - - - - - - - -
22/04:00pm 24.5 21.3 11.8 45 7.2 NE 20 28 11 15 1014.8 1014.8 0.0
22/03:30pm 26.3 22.7 6.9 29 10.2 N 15 20 8 11 1014.7 1014.7 0.0
22/03:00pm 26.2 23.4 8.7 33 9.5 NNE 13 22 7 12 1014.7 1014.7 0.0
22/02:30pm 26.0 24.6 9.4 35 9.1 ENE 7 19 4 10 1014.9 1014.9 0.0
22/02:00pm 25.2 23.3 10.5 39 8.2 N 11 22 6 12 1015.4 1015.4 0.0
22/01:30pm 23.6 22.5 10.8 44 7.1 N 7 15 4 8 1015.8 1015.8 0.0
22/01:00pm 23.8 22.7 11.8 47 6.8 NE 9 17 5 9 1016.1 1016.1 0.0
22/12:30pm 23.7 21.8 11.8 47 6.7 NNE 13 22 7 12 1016.8 1016.8 0.0
22/12:00pm 23.3 22.2 11.8 48 6.5 NNW 9 19 5 10 1017.5 1017.5 0.0
22/11:30am 23.3 20.6 11.8 48 6.5 WNW 17 26 9 14 1018.3 1018.3 0.0
22/11:00am 22.2 18.9 11.6 51 5.9 NNW 20 28 11 15 1018.9 1018.9 0.0
22/10:30am 20.1 19.6 12.6 62 4.2 NNE 7 13 4 7 1019.4 1019.4 0.0
22/10:00am 18.7 18.6 12.2 66 3.6 WNW 4 11 2 6 1019.7 1019.7 0.0
22/09:30am 18.2 17.8 12.4 69 3.2 NE 6 9 3 5 1019.8 1019.8 0.0
22/09:00am 16.7 16.2 12.7 77 2.2 S 7 9 4 5 1020.0 1020.0 0.2
22/08:30am 15.2 14.8 12.3 83 1.6 SSW 6 9 3 5 1020.1 1020.1 0.2
22/08:00am 13.8 14.3 11.5 86 1.2 CALM 0 0 0 0 1020.0 1020.0 0.2
22/07:30am 11.6 11.9 10.8 95 0.4 CALM 0 0 0 0 1019.8 1019.8 0.2
22/07:20am 10.6 10.7 10.2 97 0.2 CALM 0 6 0 3 1019.6 1019.6 0.2
22/07:00am 9.8 9.6 9.2 96 0.3 CALM 0 0 0 0 1019.4 1019.4 0.2
22/06:46am 8.8 8.4 8.4 97 0.2 CALM 0 0 0 0 1019.3 1019.3 0.2
22/06:30am 8.9 8.6 8.5 97 0.2 CALM 0 0 0 0 1019.2 1019.2 0.2
22/06:00am 9.0 8.6 8.4 96 0.3 CALM 0 0 0 0 1019.0 1019.0 0.2
22/05:30am 9.9 9.8 9.3 96 0.3 CALM 0 0 0 0 1018.7 1018.7 0.2
22/05:00am 9.7 9.6 9.3 97 0.2 CALM 0 0 0 0 1018.8 1018.8 0.2
22/04:40am 10.4 10.5 10.0 97 0.2 CALM 0 0 0 0 1018.6 1018.6 0.2
22/04:30am 10.6 10.7 10.2 97 0.2 CALM 0 0 0 0 1018.5 1018.5 0.2
22/04:00am 10.5 10.6 10.1 97 0.2 CALM 0 0 0 0 1018.5 1018.5 0.2
22/03:30am 10.7 10.8 10.1 96 0.3 CALM 0 0 0 0 1018.4 1018.4 0.2
22/03:00am 10.6 10.7 10.0 96 0.3 CALM 0 0 0 0 1018.2 1018.2 0.2
22/02:30am 11.0 11.1 10.2 95 0.4 CALM 0 0 0 0 1018.4 1018.4 0.2
22/02:00am 11.5 11.7 10.5 94 0.5 CALM 0 0 0 0 1018.5 1018.5 0.2
22/01:30am 11.9 12.0 10.3 90 0.8 CALM 0 0 0 0 1018.9 1018.9 0.0
22/01:00am 11.8 12.0 10.4 91 0.7 CALM 0 0 0 0 1018.8 1018.8 0.0
22/12:30am 12.3 12.5 10.6 89 0.9 CALM 0 4 0 2 1018.9 1018.9 0.0
22/12:00am 12.5 12.2 10.2 86 1.2 WSW 2 6 1 3 1019.3 1019.3 0.0
 
Date/Time
EST
Temp
°C
App
Temp
°C
Dew
Point
°C
Rel
Hum
%
Delta-T
°C
Wind Press
QNH
hPa
Press
MSL
hPa
Rain since
9am
mm
Dir  Spd
km/h
Gust
km/h
Spd
kts
Gust
kts
21/11:30pm 13.0 11.6 9.7 80 1.7 N 7 11 4 6 1018.5 1018.5 0.0
21/11:00pm 12.5 12.1 9.7 83 1.4 SW 2 7 1 4 1019.3 1019.3 0.0
21/10:30pm 12.4 10.0 10.1 86 1.2 SW 13 13 7 7 1019.3 1019.3 0.0
21/10:00pm 12.0 11.9 9.4 84 1.3 CALM 0 0 0 0 1018.8 1018.8 0.0
21/09:30pm 12.7 11.6 10.0 84 1.4 E 6 7 3 4 1018.9 1018.9 0.0
21/09:00pm 14.8 13.7 10.8 77 2.1 E 7 9 4 5 1018.9 1018.9 0.0

Latest Capital City Observations: Canberra | Sydney | Melbourne | Brisbane | Adelaide | Perth | Hobart | Darwin

Other Formats:

Comma delimited format used in spreadsheet applications
http://www.bom.gov.au/fwo/IDQ60901/IDQ60901.94568.axf

JavaScript Object Notation format (JSON) in row-major order
http://www.bom.gov.au/fwo/IDQ60901/IDQ60901.94568.json